sensor_id;sensor_type;location;lat;lon;timestamp;P1;durP1;ratioP1;P2;durP2;ratioP2
69485;SDS011;56677;51.710;5.366;2023-08-17T00:02:15;3.00;;;1.60;;
69485;SDS011;56677;51.710;5.366;2023-08-17T00:04:40;3.85;;;2.10;;
69485;SDS011;56677;51.710;5.366;2023-08-17T00:07:05;2.50;;;1.50;;
69485;SDS011;56677;51.710;5.366;2023-08-17T00:09:30;2.95;;;1.58;;
69485;SDS011;56677;51.710;5.366;2023-08-17T00:11:55;4.18;;;1.42;;
69485;SDS011;56677;51.710;5.366;2023-08-17T00:14:21;3.80;;;1.90;;
69485;SDS011;56677;51.710;5.366;2023-08-17T00:16:46;3.53;;;1.90;;
69485;SDS011;56677;51.710;5.366;2023-08-17T00:19:11;3.53;;;1.75;;
69485;SDS011;56677;51.710;5.366;2023-08-17T00:21:36;3.17;;;1.88;;
69485;SDS011;56677;51.710;5.366;2023-08-17T00:24:02;4.85;;;2.05;;
69485;SDS011;56677;51.710;5.366;2023-08-17T00:26:27;3.40;;;1.90;;
69485;SDS011;56677;51.710;5.366;2023-08-17T00:28:52;4.05;;;1.90;;
69485;SDS011;56677;51.710;5.366;2023-08-17T00:31:17;5.47;;;2.08;;
69485;SDS011;56677;51.710;5.366;2023-08-17T00:33:42;4.75;;;1.90;;
69485;SDS011;56677;51.710;5.366;2023-08-17T00:36:07;5.47;;;2.20;;
69485;SDS011;56677;51.710;5.366;2023-08-17T00:38:32;4.60;;;1.98;;
69485;SDS011;56677;51.710;5.366;2023-08-17T00:40:57;4.20;;;2.00;;
69485;SDS011;56677;51.710;5.366;2023-08-17T00:43:23;2.80;;;1.50;;
69485;SDS011;56677;51.710;5.366;2023-08-17T00:45:48;3.45;;;1.52;;
69485;SDS011;56677;51.710;5.366;2023-08-17T00:48:13;4.70;;;1.80;;
69485;SDS011;56677;51.710;5.366;2023-08-17T00:50:39;2.42;;;1.55;;
69485;SDS011;56677;51.710;5.366;2023-08-17T00:53:04;4.27;;;2.00;;
69485;SDS011;56677;51.710;5.366;2023-08-17T00:55:30;3.58;;;1.92;;
69485;SDS011;56677;51.710;5.366;2023-08-17T00:57:55;3.13;;;1.87;;
69485;SDS011;56677;51.710;5.366;2023-08-17T01:00:21;3.97;;;1.60;;
69485;SDS011;56677;51.710;5.366;2023-08-17T01:02:46;3.78;;;1.90;;
69485;SDS011;56677;51.710;5.366;2023-08-17T01:05:12;5.20;;;2.00;;
69485;SDS011;56677;51.710;5.366;2023-08-17T01:07:37;3.97;;;1.70;;
69485;SDS011;56677;51.710;5.366;2023-08-17T01:10:02;4.78;;;2.00;;
69485;SDS011;56677;51.710;5.366;2023-08-17T01:12:32;4.30;;;1.70;;
69485;SDS011;56677;51.710;5.366;2023-08-17T01:17:25;3.13;;;1.70;;
69485;SDS011;56677;51.710;5.366;2023-08-17T01:19:51;4.18;;;1.58;;
69485;SDS011;56677;51.710;5.366;2023-08-17T01:22:17;2.17;;;1.60;;
69485;SDS011;56677;51.710;5.366;2023-08-17T01:24:45;4.10;;;1.77;;
69485;SDS011;56677;51.710;5.366;2023-08-17T01:27:11;3.90;;;1.65;;
69485;SDS011;56677;51.710;5.366;2023-08-17T01:29:36;5.15;;;1.83;;
69485;SDS011;56677;51.710;5.366;2023-08-17T01:32:04;3.83;;;2.00;;
69485;SDS011;56677;51.710;5.366;2023-08-17T01:34:32;3.05;;;1.73;;
69485;SDS011;56677;51.710;5.366;2023-08-17T01:36:58;5.07;;;1.90;;
69485;SDS011;56677;51.710;5.366;2023-08-17T01:39:26;3.40;;;1.90;;
69485;SDS011;56677;51.710;5.366;2023-08-17T01:41:52;3.63;;;1.70;;
69485;SDS011;56677;51.710;5.366;2023-08-17T01:44:17;2.53;;;1.50;;
69485;SDS011;56677;51.710;5.366;2023-08-17T01:46:43;4.40;;;1.90;;
69485;SDS011;56677;51.710;5.366;2023-08-17T01:49:08;5.30;;;1.77;;
69485;SDS011;56677;51.710;5.366;2023-08-17T01:51:33;5.05;;;2.00;;
69485;SDS011;56677;51.710;5.366;2023-08-17T01:53:58;2.83;;;1.83;;
69485;SDS011;56677;51.710;5.366;2023-08-17T01:56:23;2.90;;;1.63;;
69485;SDS011;56677;51.710;5.366;2023-08-17T01:58:48;3.95;;;2.00;;
69485;SDS011;56677;51.710;5.366;2023-08-17T02:01:13;2.60;;;1.60;;
69485;SDS011;56677;51.710;5.366;2023-08-17T02:03:38;3.70;;;1.92;;
69485;SDS011;56677;51.710;5.366;2023-08-17T02:06:04;3.72;;;1.95;;
69485;SDS011;56677;51.710;5.366;2023-08-17T02:08:29;3.05;;;1.73;;
69485;SDS011;56677;51.710;5.366;2023-08-17T02:10:54;3.53;;;1.53;;
69485;SDS011;56677;51.710;5.366;2023-08-17T02:13:19;5.20;;;1.70;;
69485;SDS011;56677;51.710;5.366;2023-08-17T02:15:45;4.95;;;1.60;;
69485;SDS011;56677;51.710;5.366;2023-08-17T02:18:11;4.10;;;1.50;;
69485;SDS011;56677;51.710;5.366;2023-08-17T02:20:36;3.77;;;1.57;;
69485;SDS011;56677;51.710;5.366;2023-08-17T02:23:01;3.03;;;1.90;;
69485;SDS011;56677;51.710;5.366;2023-08-17T02:25:26;4.53;;;1.90;;
69485;SDS011;56677;51.710;5.366;2023-08-17T02:27:52;3.10;;;1.67;;
69485;SDS011;56677;51.710;5.366;2023-08-17T02:30:17;3.73;;;1.70;;
69485;SDS011;56677;51.710;5.366;2023-08-17T02:32:42;2.83;;;1.45;;
69485;SDS011;56677;51.710;5.366;2023-08-17T02:35:07;2.90;;;1.50;;
69485;SDS011;56677;51.710;5.366;2023-08-17T02:37:32;3.87;;;1.60;;
69485;SDS011;56677;51.710;5.366;2023-08-17T02:39:58;2.03;;;1.20;;
69485;SDS011;56677;51.710;5.366;2023-08-17T02:42:23;3.60;;;1.47;;
69485;SDS011;56677;51.710;5.366;2023-08-17T02:44:49;4.32;;;1.73;;
69485;SDS011;56677;51.710;5.366;2023-08-17T02:47:14;3.80;;;1.55;;
69485;SDS011;56677;51.710;5.366;2023-08-17T02:49:39;3.00;;;1.40;;
69485;SDS011;56677;51.710;5.366;2023-08-17T02:52:05;3.45;;;1.60;;
69485;SDS011;56677;51.710;5.366;2023-08-17T02:54:30;2.70;;;1.40;;
69485;SDS011;56677;51.710;5.366;2023-08-17T02:56:55;4.43;;;1.88;;
69485;SDS011;56677;51.710;5.366;2023-08-17T02:59:20;2.93;;;1.80;;
69485;SDS011;56677;51.710;5.366;2023-08-17T03:01:45;3.88;;;1.52;;
69485;SDS011;56677;51.710;5.366;2023-08-17T03:04:10;3.63;;;1.70;;
69485;SDS011;56677;51.710;5.366;2023-08-17T03:06:36;3.90;;;1.77;;
69485;SDS011;56677;51.710;5.366;2023-08-17T03:09:01;3.42;;;1.65;;
69485;SDS011;56677;51.710;5.366;2023-08-17T03:11:26;2.93;;;1.67;;
69485;SDS011;56677;51.710;5.366;2023-08-17T03:13:51;3.40;;;1.90;;
69485;SDS011;56677;51.710;5.366;2023-08-17T03:16:16;2.60;;;1.70;;
69485;SDS011;56677;51.710;5.366;2023-08-17T03:18:41;3.58;;;1.38;;
69485;SDS011;56677;51.710;5.366;2023-08-17T03:21:06;2.67;;;1.97;;
69485;SDS011;56677;51.710;5.366;2023-08-17T03:23:32;2.53;;;1.50;;
69485;SDS011;56677;51.710;5.366;2023-08-17T03:25:58;5.13;;;2.03;;
69485;SDS011;56677;51.710;5.366;2023-08-17T03:28:23;2.90;;;1.83;;
69485;SDS011;56677;51.710;5.366;2023-08-17T03:30:48;4.20;;;2.10;;
69485;SDS011;56677;51.710;5.366;2023-08-17T03:33:13;3.10;;;1.60;;
69485;SDS011;56677;51.710;5.366;2023-08-17T03:35:39;2.22;;;1.58;;
69485;SDS011;56677;51.710;5.366;2023-08-17T03:38:04;3.10;;;1.63;;
69485;SDS011;56677;51.710;5.366;2023-08-17T03:40:29;2.77;;;1.90;;
69485;SDS011;56677;51.710;5.366;2023-08-17T03:42:54;3.20;;;1.65;;
69485;SDS011;56677;51.710;5.366;2023-08-17T03:45:19;3.65;;;1.85;;
69485;SDS011;56677;51.710;5.366;2023-08-17T03:47:44;3.97;;;1.70;;
69485;SDS011;56677;51.710;5.366;2023-08-17T03:50:09;3.38;;;1.58;;
69485;SDS011;56677;51.710;5.366;2023-08-17T03:52:34;3.30;;;1.70;;
69485;SDS011;56677;51.710;5.366;2023-08-17T03:55:01;3.25;;;1.52;;
69485;SDS011;56677;51.710;5.366;2023-08-17T03:57:26;3.45;;;1.70;;
69485;SDS011;56677;51.710;5.366;2023-08-17T03:59:51;3.17;;;1.80;;
69485;SDS011;56677;51.710;5.366;2023-08-17T04:02:16;2.63;;;1.42;;
69485;SDS011;56677;51.710;5.366;2023-08-17T04:04:41;2.10;;;1.60;;
69485;SDS011;56677;51.710;5.366;2023-08-17T04:07:07;3.15;;;1.63;;
69485;SDS011;56677;51.710;5.366;2023-08-17T04:09:32;2.72;;;1.55;;
69485;SDS011;56677;51.710;5.366;2023-08-17T04:11:57;4.00;;;1.73;;
69485;SDS011;56677;51.710;5.366;2023-08-17T04:14:22;2.17;;;1.70;;
69485;SDS011;56677;51.710;5.366;2023-08-17T04:16:47;3.00;;;1.80;;
69485;SDS011;56677;51.710;5.366;2023-08-17T04:19:12;3.27;;;1.90;;
69485;SDS011;56677;51.710;5.366;2023-08-17T04:21:37;2.30;;;1.60;;
69485;SDS011;56677;51.710;5.366;2023-08-17T04:24:03;4.18;;;1.58;;
69485;SDS011;56677;51.710;5.366;2023-08-17T04:26:28;2.53;;;1.60;;
69485;SDS011;56677;51.710;5.366;2023-08-17T04:28:53;4.00;;;1.42;;
69485;SDS011;56677;51.710;5.366;2023-08-17T04:31:18;4.30;;;1.90;;
69485;SDS011;56677;51.710;5.366;2023-08-17T04:33:43;6.80;;;2.03;;
69485;SDS011;56677;51.710;5.366;2023-08-17T04:36:08;3.28;;;1.67;;
69485;SDS011;56677;51.710;5.366;2023-08-17T04:38:33;4.63;;;1.70;;
69485;SDS011;56677;51.710;5.366;2023-08-17T04:40:59;3.10;;;1.55;;
69485;SDS011;56677;51.710;5.366;2023-08-17T04:43:24;3.17;;;1.60;;
69485;SDS011;56677;51.710;5.366;2023-08-17T04:45:49;4.17;;;1.70;;
69485;SDS011;56677;51.710;5.366;2023-08-17T04:48:14;3.78;;;1.50;;
69485;SDS011;56677;51.710;5.366;2023-08-17T04:50:39;2.60;;;1.80;;
69485;SDS011;56677;51.710;5.366;2023-08-17T04:53:04;2.75;;;1.70;;
69485;SDS011;56677;51.710;5.366;2023-08-17T04:55:29;3.03;;;1.67;;
69485;SDS011;56677;51.710;5.366;2023-08-17T04:57:54;3.00;;;1.67;;
69485;SDS011;56677;51.710;5.366;2023-08-17T05:00:20;3.08;;;1.75;;
69485;SDS011;56677;51.710;5.366;2023-08-17T05:02:45;3.30;;;1.40;;
69485;SDS011;56677;51.710;5.366;2023-08-17T05:05:10;4.68;;;1.33;;
69485;SDS011;56677;51.710;5.366;2023-08-17T05:07:35;3.70;;;1.60;;
69485;SDS011;56677;51.710;5.366;2023-08-17T05:10:01;3.85;;;1.73;;
69485;SDS011;56677;51.710;5.366;2023-08-17T05:12:26;2.67;;;1.57;;
69485;SDS011;56677;51.710;5.366;2023-08-17T05:14:51;3.33;;;1.80;;
69485;SDS011;56677;51.710;5.366;2023-08-17T05:17:16;3.40;;;1.58;;
69485;SDS011;56677;51.710;5.366;2023-08-17T05:19:41;3.50;;;1.30;;
69485;SDS011;56677;51.710;5.366;2023-08-17T05:22:12;4.15;;;1.70;;
69485;SDS011;56677;51.710;5.366;2023-08-17T05:24:37;2.08;;;1.27;;
69485;SDS011;56677;51.710;5.366;2023-08-17T05:27:02;4.33;;;1.40;;
69485;SDS011;56677;51.710;5.366;2023-08-17T05:29:28;3.15;;;1.42;;
69485;SDS011;56677;51.710;5.366;2023-08-17T05:31:53;2.77;;;1.30;;
69485;SDS011;56677;51.710;5.366;2023-08-17T05:34:18;3.23;;;1.33;;
69485;SDS011;56677;51.710;5.366;2023-08-17T05:36:43;2.88;;;1.40;;
69485;SDS011;56677;51.710;5.366;2023-08-17T05:39:08;4.45;;;1.70;;
69485;SDS011;56677;51.710;5.366;2023-08-17T05:41:33;11.00;;;1.63;;
69485;SDS011;56677;51.710;5.366;2023-08-17T05:43:58;5.70;;;1.50;;
69485;SDS011;56677;51.710;5.366;2023-08-17T05:46:23;3.60;;;1.30;;
69485;SDS011;56677;51.710;5.366;2023-08-17T05:48:49;4.35;;;1.38;;
69485;SDS011;56677;51.710;5.366;2023-08-17T05:51:14;9.63;;;1.53;;
69485;SDS011;56677;51.710;5.366;2023-08-17T05:53:39;4.90;;;1.60;;
69485;SDS011;56677;51.710;5.366;2023-08-17T05:56:04;2.63;;;1.52;;
69485;SDS011;56677;51.710;5.366;2023-08-17T05:58:29;4.10;;;1.40;;
69485;SDS011;56677;51.710;5.366;2023-08-17T06:00:54;4.75;;;1.40;;
69485;SDS011;56677;51.710;5.366;2023-08-17T06:03:19;3.25;;;1.60;;
69485;SDS011;56677;51.710;5.366;2023-08-17T06:05:44;3.83;;;1.30;;
69485;SDS011;56677;51.710;5.366;2023-08-17T06:08:10;3.10;;;1.50;;
69485;SDS011;56677;51.710;5.366;2023-08-17T06:10:35;3.42;;;1.65;;
69485;SDS011;56677;51.710;5.366;2023-08-17T06:13:00;3.50;;;1.50;;
69485;SDS011;56677;51.710;5.366;2023-08-17T06:15:25;7.13;;;1.57;;
69485;SDS011;56677;51.710;5.366;2023-08-17T06:17:50;6.10;;;1.50;;
69485;SDS011;56677;51.710;5.366;2023-08-17T06:20:16;4.68;;;1.60;;
69485;SDS011;56677;51.710;5.366;2023-08-17T06:22:41;6.93;;;1.83;;
69485;SDS011;56677;51.710;5.366;2023-08-17T06:25:06;3.87;;;1.70;;
69485;SDS011;56677;51.710;5.366;2023-08-17T06:27:32;5.60;;;1.20;;
69485;SDS011;56677;51.710;5.366;2023-08-17T06:29:57;5.37;;;1.60;;
69485;SDS011;56677;51.710;5.366;2023-08-17T06:32:22;5.10;;;1.70;;
69485;SDS011;56677;51.710;5.366;2023-08-17T06:34:47;3.72;;;1.73;;
69485;SDS011;56677;51.710;5.366;2023-08-17T06:37:12;4.00;;;1.70;;
69485;SDS011;56677;51.710;5.366;2023-08-17T06:39:37;4.05;;;1.55;;
69485;SDS011;56677;51.710;5.366;2023-08-17T06:42:02;5.63;;;1.75;;
69485;SDS011;56677;51.710;5.366;2023-08-17T06:44:27;2.50;;;1.40;;
69485;SDS011;56677;51.710;5.366;2023-08-17T06:46:53;3.83;;;1.67;;
69485;SDS011;56677;51.710;5.366;2023-08-17T06:49:18;4.20;;;1.55;;
69485;SDS011;56677;51.710;5.366;2023-08-17T06:51:43;5.72;;;1.85;;
69485;SDS011;56677;51.710;5.366;2023-08-17T06:54:08;6.60;;;1.60;;
69485;SDS011;56677;51.710;5.366;2023-08-17T06:56:33;3.67;;;1.80;;
69485;SDS011;56677;51.710;5.366;2023-08-17T06:58:58;5.55;;;1.83;;
69485;SDS011;56677;51.710;5.366;2023-08-17T07:01:23;4.97;;;1.70;;
69485;SDS011;56677;51.710;5.366;2023-08-17T07:03:48;7.15;;;1.52;;
69485;SDS011;56677;51.710;5.366;2023-08-17T07:08:57;6.38;;;1.50;;
69485;SDS011;56677;51.710;5.366;2023-08-17T07:11:23;6.00;;;2.00;;
69485;SDS011;56677;51.710;5.366;2023-08-17T07:13:48;4.27;;;1.97;;
69485;SDS011;56677;51.710;5.366;2023-08-17T07:16:13;4.17;;;1.70;;
69485;SDS011;56677;51.710;5.366;2023-08-17T07:18:38;5.87;;;1.83;;
69485;SDS011;56677;51.710;5.366;2023-08-17T07:21:03;8.80;;;2.33;;
69485;SDS011;56677;51.710;5.366;2023-08-17T07:23:28;6.28;;;1.80;;
69485;SDS011;56677;51.710;5.366;2023-08-17T07:25:54;5.20;;;1.75;;
69485;SDS011;56677;51.710;5.366;2023-08-17T07:28:19;9.40;;;2.40;;
69485;SDS011;56677;51.710;5.366;2023-08-17T07:30:44;5.30;;;1.70;;
69485;SDS011;56677;51.710;5.366;2023-08-17T07:33:09;4.38;;;1.77;;
69485;SDS011;56677;51.710;5.366;2023-08-17T07:35:34;7.00;;;1.80;;
69485;SDS011;56677;51.710;5.366;2023-08-17T07:37:59;6.55;;;2.30;;
69485;SDS011;56677;51.710;5.366;2023-08-17T07:40:24;4.63;;;1.77;;
69485;SDS011;56677;51.710;5.366;2023-08-17T07:42:49;4.65;;;2.08;;
69485;SDS011;56677;51.710;5.366;2023-08-17T07:45:14;8.48;;;2.33;;
69485;SDS011;56677;51.710;5.366;2023-08-17T07:47:40;6.23;;;2.10;;
69485;SDS011;56677;51.710;5.366;2023-08-17T07:50:05;5.95;;;1.77;;
69485;SDS011;56677;51.710;5.366;2023-08-17T07:52:30;4.27;;;1.83;;
69485;SDS011;56677;51.710;5.366;2023-08-17T07:54:55;5.20;;;1.77;;
69485;SDS011;56677;51.710;5.366;2023-08-17T07:57:20;4.50;;;2.00;;
69485;SDS011;56677;51.710;5.366;2023-08-17T07:59:45;4.55;;;2.08;;
69485;SDS011;56677;51.710;5.366;2023-08-17T08:02:11;4.18;;;1.90;;
69485;SDS011;56677;51.710;5.366;2023-08-17T08:04:36;3.90;;;1.95;;
69485;SDS011;56677;51.710;5.366;2023-08-17T08:07:01;6.93;;;1.70;;
69485;SDS011;56677;51.710;5.366;2023-08-17T08:09:26;4.35;;;1.65;;
69485;SDS011;56677;51.710;5.366;2023-08-17T08:11:51;4.40;;;1.75;;
69485;SDS011;56677;51.710;5.366;2023-08-17T08:14:16;3.27;;;1.67;;
69485;SDS011;56677;51.710;5.366;2023-08-17T08:16:41;4.85;;;1.50;;
69485;SDS011;56677;51.710;5.366;2023-08-17T08:19:06;5.22;;;2.10;;
69485;SDS011;56677;51.710;5.366;2023-08-17T08:21:32;5.60;;;1.85;;
69485;SDS011;56677;51.710;5.366;2023-08-17T08:23:57;3.92;;;1.45;;
69485;SDS011;56677;51.710;5.366;2023-08-17T08:26:22;5.38;;;2.10;;
69485;SDS011;56677;51.710;5.366;2023-08-17T08:28:47;8.50;;;2.33;;
69485;SDS011;56677;51.710;5.366;2023-08-17T08:31:12;4.43;;;1.98;;
69485;SDS011;56677;51.710;5.366;2023-08-17T08:33:37;5.50;;;1.83;;
69485;SDS011;56677;51.710;5.366;2023-08-17T08:36:02;3.97;;;1.60;;
69485;SDS011;56677;51.710;5.366;2023-08-17T08:38:27;4.50;;;1.70;;
69485;SDS011;56677;51.710;5.366;2023-08-17T08:40:53;4.20;;;1.50;;
69485;SDS011;56677;51.710;5.366;2023-08-17T08:43:18;5.77;;;2.00;;
69485;SDS011;56677;51.710;5.366;2023-08-17T08:45:43;3.57;;;1.67;;
69485;SDS011;56677;51.710;5.366;2023-08-17T08:48:08;4.93;;;1.57;;
69485;SDS011;56677;51.710;5.366;2023-08-17T08:50:35;5.97;;;2.30;;
69485;SDS011;56677;51.710;5.366;2023-08-17T08:53:01;6.20;;;2.10;;
69485;SDS011;56677;51.710;5.366;2023-08-17T08:55:27;5.10;;;2.38;;
69485;SDS011;56677;51.710;5.366;2023-08-17T08:57:53;5.70;;;2.20;;
69485;SDS011;56677;51.710;5.366;2023-08-17T09:00:19;6.18;;;2.22;;
69485;SDS011;56677;51.710;5.366;2023-08-17T09:02:44;5.77;;;2.33;;
69485;SDS011;56677;51.710;5.366;2023-08-17T09:05:10;4.67;;;2.13;;
69485;SDS011;56677;51.710;5.366;2023-08-17T09:07:35;7.53;;;2.30;;
69485;SDS011;56677;51.710;5.366;2023-08-17T09:10:02;4.45;;;2.15;;
69485;SDS011;56677;51.710;5.366;2023-08-17T09:12:27;5.05;;;2.30;;
69485;SDS011;56677;51.710;5.366;2023-08-17T09:14:52;5.35;;;2.30;;
69485;SDS011;56677;51.710;5.366;2023-08-17T09:17:24;8.80;;;2.33;;
69485;SDS011;56677;51.710;5.366;2023-08-17T09:19:49;5.77;;;2.27;;
69485;SDS011;56677;51.710;5.366;2023-08-17T09:22:16;6.38;;;2.17;;
69485;SDS011;56677;51.710;5.366;2023-08-17T09:24:46;5.78;;;2.60;;
69485;SDS011;56677;51.710;5.366;2023-08-17T09:27:12;7.47;;;2.20;;
69485;SDS011;56677;51.710;5.366;2023-08-17T09:29:37;5.70;;;2.03;;
69485;SDS011;56677;51.710;5.366;2023-08-17T09:32:06;4.73;;;2.10;;
69485;SDS011;56677;51.710;5.366;2023-08-17T09:34:31;5.20;;;1.75;;
69485;SDS011;56677;51.710;5.366;2023-08-17T09:36:57;5.13;;;2.07;;
69485;SDS011;56677;51.710;5.366;2023-08-17T09:39:26;4.75;;;1.55;;
69485;SDS011;56677;51.710;5.366;2023-08-17T09:41:53;6.05;;;1.85;;
69485;SDS011;56677;51.710;5.366;2023-08-17T09:44:19;6.32;;;1.90;;
69485;SDS011;56677;51.710;5.366;2023-08-17T09:46:44;6.03;;;1.75;;
69485;SDS011;56677;51.710;5.366;2023-08-17T09:49:10;3.93;;;2.17;;
69485;SDS011;56677;51.710;5.366;2023-08-17T09:51:35;4.77;;;1.80;;
69485;SDS011;56677;51.710;5.366;2023-08-17T09:54:00;3.45;;;1.60;;
69485;SDS011;56677;51.710;5.366;2023-08-17T09:56:25;4.53;;;2.25;;
69485;SDS011;56677;51.710;5.366;2023-08-17T09:58:51;4.90;;;1.80;;
69485;SDS011;56677;51.710;5.366;2023-08-17T10:01:16;4.05;;;1.70;;
69485;SDS011;56677;51.710;5.366;2023-08-17T10:03:42;4.40;;;1.88;;
69485;SDS011;56677;51.710;5.366;2023-08-17T10:06:09;4.57;;;2.00;;
69485;SDS011;56677;51.710;5.366;2023-08-17T10:08:36;6.18;;;2.05;;
69485;SDS011;56677;51.710;5.366;2023-08-17T10:11:04;4.80;;;2.00;;
69485;SDS011;56677;51.710;5.366;2023-08-17T10:13:33;6.97;;;2.20;;
69485;SDS011;56677;51.710;5.366;2023-08-17T10:21:05;5.13;;;2.03;;
69485;SDS011;56677;51.710;5.366;2023-08-17T10:23:31;11.60;;;2.20;;
69485;SDS011;56677;51.710;5.366;2023-08-17T10:25:56;3.53;;;2.00;;
69485;SDS011;56677;51.710;5.366;2023-08-17T10:28:21;6.63;;;2.20;;
69485;SDS011;56677;51.710;5.366;2023-08-17T10:30:47;3.87;;;1.87;;
69485;SDS011;56677;51.710;5.366;2023-08-17T10:33:12;4.57;;;1.77;;
69485;SDS011;56677;51.710;5.366;2023-08-17T10:35:37;5.63;;;2.20;;
69485;SDS011;56677;51.710;5.366;2023-08-17T10:38:03;4.00;;;2.00;;
69485;SDS011;56677;51.710;5.366;2023-08-17T10:40:33;3.70;;;2.10;;
69485;SDS011;56677;51.710;5.366;2023-08-17T10:42:59;8.60;;;2.45;;
69485;SDS011;56677;51.710;5.366;2023-08-17T10:45:25;3.50;;;1.90;;
69485;SDS011;56677;51.710;5.366;2023-08-17T10:47:50;5.45;;;2.08;;
69485;SDS011;56677;51.710;5.366;2023-08-17T10:52:43;3.40;;;1.70;;
69485;SDS011;56677;51.710;5.366;2023-08-17T10:55:08;6.60;;;2.20;;
69485;SDS011;56677;51.710;5.366;2023-08-17T10:57:37;5.47;;;1.88;;
69485;SDS011;56677;51.710;5.366;2023-08-17T11:02:33;5.20;;;1.85;;
69485;SDS011;56677;51.710;5.366;2023-08-17T11:04:59;4.87;;;1.90;;
69485;SDS011;56677;51.710;5.366;2023-08-17T11:07:25;5.38;;;2.30;;
69485;SDS011;56677;51.710;5.366;2023-08-17T11:09:50;4.23;;;2.00;;
69485;SDS011;56677;51.710;5.366;2023-08-17T11:12:27;6.32;;;2.42;;
69485;SDS011;56677;51.710;5.366;2023-08-17T11:14:52;5.30;;;2.35;;
69485;SDS011;56677;51.710;5.366;2023-08-17T11:17:20;4.55;;;2.33;;
69485;SDS011;56677;51.710;5.366;2023-08-17T11:19:45;5.97;;;1.90;;
69485;SDS011;56677;51.710;5.366;2023-08-17T11:22:10;4.35;;;2.17;;
69485;SDS011;56677;51.710;5.366;2023-08-17T11:24:36;3.67;;;1.80;;
69485;SDS011;56677;51.710;5.366;2023-08-17T11:27:02;6.03;;;2.30;;
69485;SDS011;56677;51.710;5.366;2023-08-17T11:29:31;4.18;;;2.05;;
69485;SDS011;56677;51.710;5.366;2023-08-17T11:31:56;4.67;;;2.03;;
69485;SDS011;56677;51.710;5.366;2023-08-17T11:34:21;5.95;;;1.92;;
69485;SDS011;56677;51.710;5.366;2023-08-17T11:36:46;5.65;;;2.10;;
69485;SDS011;56677;51.710;5.366;2023-08-17T11:39:11;4.60;;;2.20;;
69485;SDS011;56677;51.710;5.366;2023-08-17T11:41:36;6.80;;;3.58;;
69485;SDS011;56677;51.710;5.366;2023-08-17T11:44:02;10.40;;;3.90;;
69485;SDS011;56677;51.710;5.366;2023-08-17T11:46:27;14.20;;;4.03;;
69485;SDS011;56677;51.710;5.366;2023-08-17T11:48:52;11.83;;;3.97;;
69485;SDS011;56677;51.710;5.366;2023-08-17T11:51:19;9.05;;;3.75;;
69485;SDS011;56677;51.710;5.366;2023-08-17T11:53:52;9.25;;;4.03;;
69485;SDS011;56677;51.710;5.366;2023-08-17T11:56:17;7.72;;;3.90;;
69485;SDS011;56677;51.710;5.366;2023-08-17T11:58:43;8.55;;;4.13;;
69485;SDS011;56677;51.710;5.366;2023-08-17T12:01:10;9.00;;;3.60;;
69485;SDS011;56677;51.710;5.366;2023-08-17T12:03:35;9.13;;;3.80;;
69485;SDS011;56677;51.710;5.366;2023-08-17T12:06:00;8.35;;;4.10;;
69485;SDS011;56677;51.710;5.366;2023-08-17T12:08:25;8.13;;;3.97;;
69485;SDS011;56677;51.710;5.366;2023-08-17T12:10:51;9.97;;;4.50;;
69485;SDS011;56677;51.710;5.366;2023-08-17T12:13:17;9.33;;;4.50;;
69485;SDS011;56677;51.710;5.366;2023-08-17T12:15:42;9.05;;;4.43;;
69485;SDS011;56677;51.710;5.366;2023-08-17T12:18:07;9.70;;;4.30;;
69485;SDS011;56677;51.710;5.366;2023-08-17T12:20:32;9.57;;;4.20;;
69485;SDS011;56677;51.710;5.366;2023-08-17T12:22:58;10.13;;;4.50;;
69485;SDS011;56677;51.710;5.366;2023-08-17T12:25:23;17.67;;;4.85;;
69485;SDS011;56677;51.710;5.366;2023-08-17T12:27:48;13.10;;;4.80;;
69485;SDS011;56677;51.710;5.366;2023-08-17T12:30:24;14.60;;;4.70;;
69485;SDS011;56677;51.710;5.366;2023-08-17T12:32:49;11.73;;;5.20;;
69485;SDS011;56677;51.710;5.366;2023-08-17T12:35:14;14.15;;;4.70;;
69485;SDS011;56677;51.710;5.366;2023-08-17T12:37:39;11.65;;;5.13;;
69485;SDS011;56677;51.710;5.366;2023-08-17T12:40:05;10.33;;;4.63;;
69485;SDS011;56677;51.710;5.366;2023-08-17T12:42:30;12.80;;;5.10;;
69485;SDS011;56677;51.710;5.366;2023-08-17T12:44:55;10.40;;;4.70;;
69485;SDS011;56677;51.710;5.366;2023-08-17T12:47:20;13.33;;;5.00;;
69485;SDS011;56677;51.710;5.366;2023-08-17T12:49:45;10.02;;;4.57;;
69485;SDS011;56677;51.710;5.366;2023-08-17T12:52:10;12.27;;;4.82;;
69485;SDS011;56677;51.710;5.366;2023-08-17T12:54:36;9.38;;;4.82;;
69485;SDS011;56677;51.710;5.366;2023-08-17T12:57:01;11.07;;;4.57;;
69485;SDS011;56677;51.710;5.366;2023-08-17T12:59:26;18.93;;;4.77;;
69485;SDS011;56677;51.710;5.366;2023-08-17T13:01:51;10.13;;;4.22;;
69485;SDS011;56677;51.710;5.366;2023-08-17T13:04:16;10.50;;;5.00;;
69485;SDS011;56677;51.710;5.366;2023-08-17T13:06:41;12.23;;;4.88;;
69485;SDS011;56677;51.710;5.366;2023-08-17T13:09:06;12.13;;;4.40;;
69485;SDS011;56677;51.710;5.366;2023-08-17T13:11:31;10.77;;;4.70;;
69485;SDS011;56677;51.710;5.366;2023-08-17T13:13:57;9.90;;;4.40;;
69485;SDS011;56677;51.710;5.366;2023-08-17T13:16:22;9.77;;;4.73;;
69485;SDS011;56677;51.710;5.366;2023-08-17T13:18:47;10.52;;;4.38;;
69485;SDS011;56677;51.710;5.366;2023-08-17T13:21:12;11.65;;;4.57;;
69485;SDS011;56677;51.710;5.366;2023-08-17T13:23:37;10.77;;;4.70;;
69485;SDS011;56677;51.710;5.366;2023-08-17T13:26:02;15.35;;;4.85;;
69485;SDS011;56677;51.710;5.366;2023-08-17T13:28:27;11.20;;;4.65;;
69485;SDS011;56677;51.710;5.366;2023-08-17T13:30:53;10.00;;;4.72;;
69485;SDS011;56677;51.710;5.366;2023-08-17T13:33:18;7.32;;;4.13;;
69485;SDS011;56677;51.710;5.366;2023-08-17T13:35:43;9.95;;;4.03;;
69485;SDS011;56677;51.710;5.366;2023-08-17T13:38:08;12.85;;;4.63;;
69485;SDS011;56677;51.710;5.366;2023-08-17T13:40:33;10.60;;;4.75;;
69485;SDS011;56677;51.710;5.366;2023-08-17T13:42:58;10.13;;;4.40;;
69485;SDS011;56677;51.710;5.366;2023-08-17T13:45:24;9.93;;;4.43;;
69485;SDS011;56677;51.710;5.366;2023-08-17T13:47:49;8.60;;;4.40;;
69485;SDS011;56677;51.710;5.366;2023-08-17T13:50:14;11.00;;;4.70;;
69485;SDS011;56677;51.710;5.366;2023-08-17T13:52:39;11.40;;;4.97;;
69485;SDS011;56677;51.710;5.366;2023-08-17T13:55:04;9.32;;;4.50;;
69485;SDS011;56677;51.710;5.366;2023-08-17T13:57:30;10.90;;;4.90;;
69485;SDS011;56677;51.710;5.366;2023-08-17T13:59:55;8.45;;;4.95;;
69485;SDS011;56677;51.710;5.366;2023-08-17T14:02:20;9.98;;;4.78;;
69485;SDS011;56677;51.710;5.366;2023-08-17T14:04:45;8.70;;;4.50;;
69485;SDS011;56677;51.710;5.366;2023-08-17T14:07:10;11.93;;;4.57;;
69485;SDS011;56677;51.710;5.366;2023-08-17T14:09:36;9.67;;;4.67;;
69485;SDS011;56677;51.710;5.366;2023-08-17T14:12:02;9.80;;;4.87;;
69485;SDS011;56677;51.710;5.366;2023-08-17T14:14:27;10.97;;;5.13;;
69485;SDS011;56677;51.710;5.366;2023-08-17T14:16:52;10.10;;;4.33;;
69485;SDS011;56677;51.710;5.366;2023-08-17T14:19:17;9.60;;;5.20;;
69485;SDS011;56677;51.710;5.366;2023-08-17T14:21:42;8.75;;;4.78;;
69485;SDS011;56677;51.710;5.366;2023-08-17T14:24:07;10.57;;;4.80;;
69485;SDS011;56677;51.710;5.366;2023-08-17T14:26:33;10.20;;;5.00;;
69485;SDS011;56677;51.710;5.366;2023-08-17T14:28:58;9.77;;;5.10;;
69485;SDS011;56677;51.710;5.366;2023-08-17T14:31:23;10.30;;;4.70;;
69485;SDS011;56677;51.710;5.366;2023-08-17T14:33:48;11.73;;;5.28;;
69485;SDS011;56677;51.710;5.366;2023-08-17T14:36:13;12.00;;;4.60;;
69485;SDS011;56677;51.710;5.366;2023-08-17T14:38:39;10.33;;;5.13;;
69485;SDS011;56677;51.710;5.366;2023-08-17T14:41:04;8.85;;;4.60;;
69485;SDS011;56677;51.710;5.366;2023-08-17T14:43:29;9.75;;;4.63;;
69485;SDS011;56677;51.710;5.366;2023-08-17T14:45:54;8.70;;;4.82;;
69485;SDS011;56677;51.710;5.366;2023-08-17T14:48:19;8.95;;;5.20;;
69485;SDS011;56677;51.710;5.366;2023-08-17T14:50:44;11.48;;;4.47;;